Data for 04/26/2009

Time Sea-Level Adjusted Pressure Absolute Pressure Temperature Relative Humidity Dew Point   
(mb) (inHg) (mb) (inHg) (C) (F) (%) (C) (F)
00:05 1012 29.88 841 24.83 3.4 38.1 58 -4.2 24.5
00:10 1012 29.88 841 24.83 3.1 37.6 60 -4 24.8
00:15 1012 29.88 841 24.83 2.9 37.3 59 -4.4 24.1
00:20 1012 29.88 841 24.83 3.2 37.7 54 -5.3 22.4
00:25 1012 29.88 841 24.83 3.5 38.3 52 -5.5 22.1
00:30 1012 29.88 841 24.83 3.6 38.4 53 -5.3 22.5
00:35 1012 29.88 841 24.83 3.5 38.3 52 -5.3 22.4
00:40 1012 29.88 841 24.83 3.4 38.2 57 -4.2 24.4
00:45 1012 29.88 842 24.86 3.2 37.7 55 -4.9 23.1
00:50 1012 29.88 842 24.86 3.3 37.9 55 -5 23
00:55 1013 29.91 842 24.86 3.2 37.7 59 -4.1 24.6
01:00 1013 29.91 842 24.86 2.9 37.2 58 -4.6 23.7
01:05 1013 29.91 842 24.86 3 37.4 61 -3.7 25.3
01:10 1013 29.91 842 24.86 3.1 37.6 63 -3.3 26
01:15 1013 29.91 842 24.86 3.1 37.6 64 -3.1 26.4
01:20 1013 29.91 842 24.86 3 37.4 65 -3 26.6
01:25 1013 29.91 842 24.86 2.9 37.2 63 -3.5 25.8
01:30 1013 29.91 842 24.86 3 37.4 59 -4.2 24.5
01:35 1013 29.91 842 24.86 3.2 37.8 57 -4.4 24
01:40 1013 29.91 842 24.86 3.2 37.7 58 -4.3 24.3
01:45 1013 29.91 842 24.86 2.9 37.2 61 -3.9 24.9
01:50 1013 29.91 842 24.86 2.6 36.6 63 -3.8 25.2
01:55 1013 29.91 842 24.86 2.3 36.1 67 -3.3 26.1
02:00 1013 29.91 842 24.86 2 35.6 68 -3.3 26.1
02:05 1013 29.91 842 24.86 1.9 35.5 68 -3.3 26.1
02:10 1013 29.91 842 24.86 2 35.5 67 -3.5 25.7
02:15 1013 29.91 842 24.86 2.1 35.8 66 -3.5 25.7
02:20 1013 29.91 842 24.86 2.2 35.9 66 -3.4 25.8
02:25 1013 29.91 842 24.86 2.2 35.9 66 -3.5 25.7
02:30 1013 29.91 842 24.86 2.3 36.1 68 -3 26.6
02:35 1013 29.91 842 24.86 2.1 35.8 66 -3.5 25.6
02:40 1013 29.91 842 24.86 2.2 36 66 -3.4 25.9
02:45 1013 29.91 842 24.86 2.2 36 67 -3.3 26
02:50 1013 29.91 842 24.86 2.4 36.3 67 -3.2 26.2
02:55 1013 29.91 842 24.86 2.2 36 70 -2.7 27.1
03:00 1013 29.91 842 24.86 2 35.6 71 -2.6 27.2
03:05 1013 29.91 842 24.86 1.8 35.3 73 -2.6 27.4
03:10 1013 29.91 842 24.86 1.8 35.3 72 -2.8 27
03:15 1013 29.91 842 24.86 1.8 35.3 74 -2.2 28
03:20 1013 29.91 842 24.86 1.7 35 76 -2.1 28.3
03:25 1013 29.91 842 24.86 1.6 34.8 75 -2.4 27.6
03:30 1013 29.91 842 24.86 1.8 35.2 76 -2 28.4
03:35 1013 29.91 842 24.86 1.7 35 81 -1.3 29.7
03:40 1013 29.91 842 24.86 1.5 34.7 84 -0.9 30.4
03:45 1013 29.91 842 24.86 1.2 34.1 88 -0.7 30.8
03:50 1013 29.91 842 24.86 1 33.8 89 -0.6 31
03:55 1013 29.91 842 24.86 0.9 33.6 91 -0.5 31.2
04:00 1013 29.91 842 24.86 0.8 33.4 91 -0.6 30.9
04:05 1013 29.91 842 24.86 0.6 33 92 -0.6 31
04:10 1013 29.91 842 24.86 0.4 32.7 93 -0.6 30.9
04:15 1013 29.91 842 24.86 0.4 32.7 93 -0.6 31
04:20 1013 29.91 842 24.86 0.4 32.7 94 -0.5 31.1
04:25 1013 29.91 842 24.86 0.3 32.6 95 -0.4 31.2
04:30 1013 29.91 842 24.86 0.3 32.5 95 -0.4 31.2
04:35 1013 29.91 842 24.86 0.1 32.2 96 -0.5 31.1
04:40 1013 29.91 842 24.86 -0 32 96 -0.5 31
04:45 1013 29.91 842 24.86 -0 31.9 97 -0.5 31
04:50 1013 29.91 842 24.86 -0 31.9 96 -0.6 31
04:55 1013 29.91 842 24.86 -0 31.9 97 -0.5 31.1
05:00 1013 29.91 842 24.86 -0 32 97 -0.5 31.1
05:05 1013 29.91 842 24.86 -0 32 97 -0.5 31.2
05:10 1013 29.91 842 24.86 -0 32 97 -0.5 31.1
05:15 1013 29.91 842 24.86 -0 32 97 -0.5 31.1
05:20 1013 29.91 842 24.86 -0 32 97 -0.5 31.2
05:25 1013 29.91 842 24.86 0.1 32.1 97 -0.4 31.3
05:30 1013 29.91 842 24.86 0 32 97 -0.4 31.2
05:35 1013 29.91 842 24.86 0.1 32.1 97 -0.4 31.3
05:40 1013 29.91 842 24.86 0.1 32.1 97 -0.4 31.3
05:45 1013 29.91 842 24.86 0.1 32.1 97 -0.4 31.3
05:50 1013 29.91 842 24.86 0 32 97 -0.4 31.2
05:55 1013 29.91 842 24.86 0 32 97 -0.4 31.3
06:00 1013 29.91 842 24.86 -0 32 97 -0.4 31.3
06:05 1013 29.91 842 24.86 0.1 32.2 97 -0.3 31.5
06:10 1013 29.91 842 24.86 0.2 32.3 97 -0.2 31.6
06:15 1013 29.91 842 24.86 0.3 32.5 97 -0.1 31.8
06:20 1013 29.91 842 24.86 0.4 32.7 97 -0.1 31.9
06:25 1013 29.91 843 24.89 0.4 32.7 96 -0.1 31.8
06:30 1013 29.91 843 24.89 0.4 32.7 96 -0.2 31.7
06:35 1013 29.91 843 24.89 0.3 32.6 96 -0.2 31.6
06:40 1014 29.94 843 24.89 0.4 32.7 96 -0.2 31.7
06:45 1014 29.94 843 24.89 0.4 32.7 96 -0.2 31.7
06:50 1014 29.94 843 24.89 0.4 32.7 96 -0.2 31.7
06:55 1014 29.94 843 24.89 0.4 32.7 96 -0.1 31.8
07:00 1014 29.94 843 24.89 0.5 32.8 96 -0.1 31.9
07:05 1014 29.94 843 24.89 0.5 33 95 -0.1 31.8
07:10 1014 29.94 843 24.89 0.6 33 95 -0.2 31.7
07:15 1014 29.94 843 24.89 0.5 32.8 95 -0.2 31.6
07:20 1014 29.94 843 24.89 0.5 32.8 96 -0.2 31.7
07:25 1014 29.94 843 24.89 0.6 33 94 -0.2 31.6
07:30 1014 29.94 843 24.89 0.6 33.1 94 -0.2 31.7
07:35 1014 29.94 843 24.89 0.6 33.1 95 -0.2 31.7
07:40 1014 29.94 843 24.89 0.6 33 95 -0.2 31.7
07:45 1014 29.94 843 24.89 0.5 32.9 95 -0.2 31.6
07:50 1014 29.94 843 24.89 0.5 32.9 95 -0.2 31.7
07:55 1014 29.94 843 24.89 0.6 33 95 -0.1 31.8
08:00 1014 29.94 843 24.89 0.6 33.1 95 -0.1 31.8
08:05 1014 29.94 843 24.89 0.6 33.2 95 -0.1 31.8
08:10 1014 29.94 843 24.89 0.7 33.3 95 -0.1 31.8
08:15 1014 29.94 843 24.89 0.6 33.2 94 -0.2 31.7
08:20 1014 29.94 844 24.92 0.5 32.9 95 -0.3 31.5
08:25 1014 29.94 844 24.92 0.5 32.9 94 -0.3 31.5
08:30 1014 29.94 844 24.92 0.5 32.9 95 -0.2 31.6
08:35 1014 29.94 844 24.92 0.6 33.1 94 -0.3 31.5
08:40 1014 29.94 844 24.92 0.5 32.9 95 -0.2 31.6
08:45 1014 29.94 844 24.92 0.6 33 94 -0.2 31.6
08:50 1015 29.97 844 24.92 0.7 33.3 93 -0.2 31.6
08:55 1015 29.97 844 24.92 0.9 33.6 92 -0.2 31.6
09:00 1015 29.97 844 24.92 1 33.8 93 -0.1 31.8
09:05 1015 29.97 844 24.92 1.1 34 91 -0.1 31.8
09:10 1015 29.97 844 24.92 1.2 34.2 91 -0 32
09:15 1015 29.97 844 24.92 1.3 34.4 91 -0 32
09:20 1015 29.97 844 24.92 1.5 34.7 89 -0.1 31.8
09:25 1015 29.97 844 24.92 1.7 35 89 0.1 32.1
09:30 1015 29.97 844 24.92 1.8 35.3 86 -0.2 31.6
09:35 1015 29.97 844 24.92 2 35.5 86 -0.2 31.6
09:40 1015 29.97 844 24.92 1.6 35 88 -0.1 31.8
09:45 1015 29.97 844 24.92 1.5 34.8 89 -0 31.9
09:50 1015 29.97 844 24.92 1.6 34.9 88 -0.2 31.7
09:55 1015 29.97 844 24.92 1.3 34.4 90 -0.2 31.7
10:00 1015 29.97 844 24.92 1 33.7 91 -0.4 31.4
10:05 1015 29.97 844 24.92 1.2 34.2 88 -0.5 31.1
10:10 1015 29.97 844 24.92 1 33.9 89 -0.6 31
10:15 1015 29.97 844 24.92 0.8 33.5 92 -0.4 31.3
10:20 1015 29.97 844 24.92 0.5 32.9 93 -0.5 31
10:25 1015 29.97 844 24.92 0.6 33 93 -0.5 31.1
10:30 1015 29.97 844 24.92 0.5 32.9 93 -0.5 31.1
10:35 1015 29.97 844 24.92 0.6 33 92 -0.5 31
10:40 1015 29.97 844 24.92 0.7 33.3 92 -0.5 31.1
10:45 1015 29.97 845 24.95 0.6 33 93 -0.4 31.3
10:50 1015 29.97 845 24.95 0.4 32.6 95 -0.4 31.2
10:55 1015 29.97 845 24.95 0.5 32.8 94 -0.5 31.2
11:00 1015 29.97 845 24.95 0.7 33.2 93 -0.3 31.4
11:05 1016 30 845 24.95 0.8 33.4 93 -0.2 31.7
11:10 1016 30 845 24.95 0.7 33.3 94 -0.2 31.6
11:15 1016 30 845 24.95 0.8 33.4 92 -0.4 31.3
11:20 1016 30 845 24.95 1 33.7 92 -0.2 31.6
11:25 1016 30 845 24.95 1 33.8 91 -0.3 31.4
11:30 1016 30 845 24.95 1.2 34.2 89 -0.3 31.4
11:35 1016 30 845 24.95 1.3 34.3 89 -0.3 31.5
11:40 1016 30 845 24.95 0.8 33.5 92 -0.2 31.6
11:45 1016 30 845 24.95 0.9 33.5 91 -0.4 31.3
11:50 1016 30 845 24.95 0.9 33.6 87 -1 30.2
11:55 1016 30 845 24.95 1 33.8 91 -0.4 31.3
12:00 1016 30 845 24.95 1.2 34.1 88 -0.6 31
12:05 1016 30 845 24.95 1.2 34.2 88 -0.5 31.1
12:10 1016 30 845 24.95 1.3 34.3 91 -0.1 31.8
12:15 1016 30 845 24.95 1.1 34 90 -0.3 31.5
12:20 1016 30 845 24.95 1 33.7 92 -0.3 31.5
12:25 1016 30 845 24.95 0.9 33.5 93 -0.2 31.6
12:30 1016 30 845 24.95 0.9 33.6 90 -0.6 30.9
12:35 1016 30 845 24.95 0.8 33.4 93 -0.3 31.5
12:40 1016 30 845 24.95 0.7 33.2 94 -0.2 31.7
12:45 1016 30 845 24.95 0.5 32.9 95 -0.3 31.5
12:50 1016 30 845 24.95 0.4 32.7 95 -0.3 31.5
12:55 1016 30 845 24.95 0.4 32.7 95 -0.3 31.5
13:00 1016 30 845 24.95 0.4 32.7 96 -0.2 31.7
13:05 1016 30 845 24.95 0.4 32.7 96 -0.2 31.7
13:10 1016 30 845 24.95 0.3 32.6 96 -0.2 31.7
13:15 1016 30 845 24.95 0.4 32.7 96 -0.2 31.7
13:20 1016 30 845 24.95 0.4 32.8 96 -0.1 31.8
13:25 1016 30 845 24.95 0.4 32.8 96 -0.2 31.7
13:30 1016 30 845 24.95 0.4 32.7 96 -0.2 31.6
13:35 1016 30 845 24.95 0.4 32.7 96 -0.2 31.6
13:40 1016 30 845 24.95 0.4 32.7 96 -0.2 31.6
13:45 1016 30 845 24.95 0.5 32.9 96 -0.1 31.9
13:50 1016 30 845 24.95 0.5 32.8 96 -0.2 31.7
13:55 1016 30 845 24.95 0.5 32.9 96 -0.1 31.9
14:00 1016 30 845 24.95 0.5 32.9 96 -0.1 31.9
14:05 1016 30 845 24.95 0.6 33 96 -0 32
14:10 1016 30 845 24.95 0.6 33.1 96 0.1 32.1
14:15 1016 30 845 24.95 0.7 33.2 96 0.1 32.2
14:20 1016 30 845 24.95 0.8 33.4 95 0.1 32.2
14:25 1016 30 846 24.98 0.8 33.4 95 0.1 32.2
14:30 1016 30 846 24.98 0.8 33.4 95 0.1 32.2
14:35 1016 30 846 24.98 0.7 33.3 95 0 32.1
14:40 1016 30 846 24.98 0.7 33.2 96 0 32.1
14:45 1017 30.03 846 24.98 0.8 33.4 95 0.1 32.2
14:50 1017 30.03 846 24.98 0.7 33.3 95 0.1 32.1
14:55 1017 30.03 846 24.98 0.9 33.6 95 0.1 32.3
15:00 1017 30.03 846 24.98 1.1 34 94 0.3 32.6
15:05 1017 30.03 846 24.98 0.9 33.7 93 -0 32
15:10 1017 30.03 846 24.98 0.7 33.3 95 0.1 32.1
15:15 1017 30.03 846 24.98 0.7 33.2 96 0.1 32.2
15:20 1017 30.03 846 24.98 0.7 33.3 96 0.1 32.2
15:25 1017 30.03 846 24.98 0.7 33.2 96 0.1 32.2
15:30 1017 30.03 846 24.98 0.7 33.3 96 0.1 32.2
15:35 1017 30.03 846 24.98 0.6 33.1 96 0.1 32.1
15:40 1017 30.03 846 24.98 0.5 32.9 97 0 32.1
15:45 1017 30.03 846 24.98 0.5 32.9 97 0 32
15:50 1017 30.03 846 24.98 0.6 33.1 96 0.1 32.1
15:55 1017 30.03 846 24.98 0.8 33.4 96 0.2 32.3
16:00 1017 30.03 846 24.98 0.8 33.5 96 0.2 32.4
16:05 1017 30.03 846 24.98 1 33.8 95 0.2 32.4
16:10 1017 30.03 846 24.98 1.1 34 94 0.2 32.4
16:15 1017 30.03 846 24.98 1.2 34.2 93 0.3 32.5
16:20 1017 30.03 846 24.98 1.3 34.4 93 0.3 32.5
16:25 1017 30.03 846 24.98 1.2 34.1 94 0.2 32.4
16:30 1017 30.03 846 24.98 1.3 34.3 93 0.4 32.6
16:35 1017 30.03 846 24.98 1.3 34.3 93 0.3 32.6
16:40 1017 30.03 846 24.98 1.3 34.4 92 0.1 32.3
16:45 1017 30.03 846 24.98 1.3 34.4 93 0.3 32.6
16:50 1017 30.03 846 24.98 1.4 34.5 92 0.2 32.4
16:55 1017 30.03 846 24.98 1.7 35 90 0.2 32.3
17:00 1017 30.03 846 24.98 1.8 35.2 89 0.1 32.3
17:05 1017 30.03 846 24.98 1.7 35.1 89 0.1 32.2
17:10 1017 30.03 846 24.98 1.8 35.3 88 0 32.1
17:15 1017 30.03 846 24.98 2.1 35.7 87 0.2 32.3
17:20 1017 30.03 846 24.98 2 35.6 87 0.1 32.2
17:25 1017 30.03 846 24.98 2 35.6 88 0.2 32.3
17:30 1017 30.03 846 24.98 2.1 35.8 89 0.4 32.7
17:35 1017 30.03 847 25.01 2.1 35.7 89 0.5 32.9
17:40 1017 30.03 847 25.01 1.9 35.3 90 0.5 32.8
17:45 1017 30.03 847 25.01 1.4 34.5 93 0.4 32.8
17:50 1018 30.06 847 25.01 1.4 34.4 91 0.1 32.2
17:55 1018 30.06 847 25.01 1.1 34 94 0.3 32.5
18:00 1018 30.06 847 25.01 1.2 34.2 94 0.3 32.6
18:05 1018 30.06 847 25.01 1.1 34 94 0.3 32.6
18:10 1018 30.06 847 25.01 1 33.8 94 0.1 32.2
18:15 1018 30.06 847 25.01 1 33.8 94 0.2 32.3
18:20 1018 30.06 847 25.01 1 33.8 93 -0 32
18:25 1018 30.06 847 25.01 1.1 34 92 -0.1 31.8
18:30 1018 30.06 847 25.01 1.2 34.2 93 0.2 32.3
18:35 1018 30.06 847 25.01 1.4 34.5 92 0.2 32.4
18:40 1018 30.06 847 25.01 1.4 34.4 91 0.1 32.2
18:45 1018 30.06 847 25.01 1.3 34.4 91 0 32.1
18:50 1018 30.06 847 25.01 1.3 34.4 90 -0.2 31.7
18:55 1018 30.06 847 25.01 1.4 34.5 90 -0 31.9
19:00 1018 30.06 847 25.01 1.3 34.4 90 -0.1 31.8
19:05 1018 30.06 847 25.01 1.2 34.2 91 -0.1 31.9
19:10 1018 30.06 847 25.01 1.3 34.3 90 -0.2 31.6
19:15 1018 30.06 847 25.01 1.3 34.3 89 -0.4 31.3
19:20 1018 30.06 847 25.01 1.3 34.3 88 -0.5 31
19:25 1018 30.06 847 25.01 1.3 34.3 87 -0.6 30.9
19:30 1018 30.06 847 25.01 1.3 34.4 87 -0.7 30.8
19:35 1018 30.06 847 25.01 1.4 34.4 87 -0.6 31
19:40 1018 30.06 847 25.01 1.3 34.4 88 -0.5 31.1
19:45 1018 30.06 847 25.01 1.4 34.5 86 -0.7 30.8
19:50 1018 30.06 847 25.01 1.3 34.4 87 -0.6 30.8
19:55 1018 30.06 847 25.01 1.3 34.4 85 -1 30.2
20:00 1018 30.06 847 25.01 1.5 34.7 82 -1.2 29.9
20:05 1018 30.06 847 25.01 1.7 35.1 83 -0.9 30.3
20:10 1018 30.06 847 25.01 1.6 35 80 -1.5 29.4
20:15 1018 30.06 847 25.01 1.6 34.9 78 -1.8 28.7
20:20 1018 30.06 847 25.01 1.5 34.8 81 -1.4 29.4
20:25 1018 30.06 847 25.01 1.3 34.3 82 -1.4 29.4
20:30 1018 30.06 847 25.01 1.1 34 83 -1.4 29.5
20:35 1018 30.06 847 25.01 1.2 34.2 83 -1.4 29.6
20:40 1018 30.06 847 25.01 1.3 34.3 84 -1.1 30
20:45 1018 30.06 848 25.04 1.1 34.1 84 -1.3 29.6
20:50 1018 30.06 848 25.04 0.8 33.4 87 -1.1 30.1
20:55 1018 30.06 848 25.04 0.6 33 88 -1.2 29.8
21:00 1018 30.06 848 25.04 0.7 33.2 87 -1.3 29.7
21:05 1019 30.09 848 25.04 0.6 33.1 89 -1 30.2
21:10 1019 30.09 848 25.04 0.5 32.9 89 -1.1 30.1
21:15 1019 30.09 848 25.04 0.6 33.1 86 -1.5 29.3
21:20 1019 30.09 848 25.04 0.6 33.1 87 -1.4 29.6
21:25 1019 30.09 848 25.04 0.5 33 88 -1.3 29.7
21:30 1019 30.09 848 25.04 0.4 32.8 87 -1.4 29.5
21:35 1019 30.09 848 25.04 0.4 32.8 88 -1.4 29.5
21:40 1019 30.09 848 25.04 0.4 32.7 88 -1.3 29.6
21:45 1019 30.09 848 25.04 0.4 32.7 88 -1.4 29.5
21:50 1019 30.09 848 25.04 0.3 32.5 89 -1.3 29.6
21:55 1019 30.09 848 25.04 0.1 32.2 88 -1.7 29
22:00 1019 30.09 848 25.04 0.2 32.4 88 -1.6 29.2
22:05 1019 30.09 848 25.04 0.1 32.2 90 -1.4 29.5
22:10 1019 30.09 848 25.04 0 32 92 -1.2 29.8
22:15 1019 30.09 848 25.04 -0 31.9 92 -1.2 29.9
22:20 1019 30.09 848 25.04 0 32 92 -1.2 29.9
22:25 1019 30.09 848 25.04 0.2 32.4 90 -1.2 29.8
22:30 1019 30.09 848 25.04 0.3 32.5 89 -1.4 29.4
22:35 1019 30.09 848 25.04 0.4 32.8 86 -1.7 29
22:40 1019 30.09 848 25.04 0.3 32.6 86 -1.8 28.8
22:45 1019 30.09 848 25.04 0.2 32.4 87 -1.6 29.1
22:50 1019 30.09 848 25.04 0.3 32.5 86 -1.8 28.7
22:55 1019 30.09 848 25.04 0.2 32.3 86 -2 28.5
23:00 1019 30.09 848 25.04 0.4 32.7 85 -1.9 28.6
23:05 1019 30.09 848 25.04 0.2 32.4 86 -1.8 28.8
23:10 1019 30.09 848 25.04 0.5 32.9 85 -1.7 28.9
23:15 1019 30.09 848 25.04 0.5 32.9 85 -1.7 29
23:20 1019 30.09 848 25.04 0.5 32.9 86 -1.6 29.1
23:25 1019 30.09 848 25.04 0.5 32.8 86 -1.7 29
23:30 1019 30.09 848 25.04 0.6 33 85 -1.6 29.1
23:35 1019 30.09 848 25.04 0.6 33.1 86 -1.4 29.5
23:40 1019 30.09 848 25.04 0.6 33.1 86 -1.5 29.3
23:45 1019 30.09 848 25.04 0.6 33.1 85 -1.6 29.1
23:50 1019 30.09 848 25.04 0.8 33.4 85 -1.5 29.3
23:55 1019 30.09 848 25.04 0.8 33.5 83 -1.7 29
24:00 1019 30.09 848 25.04 0.8 33.5 85 -1.4 29.5